Time;durP1;ratioP1;P1;durP2;ratioP2;P2;SDS_P1;SDS_P2;PMS_P1;PMS_P2;Temp;Humidity;BMP_temperature;BMP_pressure;BME280_temperature;BME280_humidity;BME280_pressure;Samples;Min_cycle;Max_cycle;Signal;HPM_P1;HPM_P2
2022/08/27 00:00:45;;;;;;;11.60;10.23;;;;;;;17.47;100.00;101085.41;6040654;23;20024;-75
2022/08/27 00:03:12;;;;;;;13.82;10.93;;;;;;;17.59;100.00;101095.09;6062360;23;20032;-74
2022/08/27 00:05:39;;;;;;;12.15;9.38;;;;;;;17.80;100.00;101147.53;6024518;23;20046;-74
2022/08/27 00:08:08;;;;;;;13.23;11.57;;;;;;;17.73;100.00;101139.19;6082112;23;20029;-74
2022/08/27 00:10:34;;;;;;;10.88;9.70;;;;;;;17.24;100.00;101072.06;6035180;23;20011;-74
2022/08/27 00:13:01;;;;;;;10.60;8.88;;;;;;;16.59;100.00;100967.22;6071910;23;20032;-74
2022/08/27 00:15:28;;;;;;;10.15;9.15;;;;;;;17.41;100.00;101113.25;6021200;23;20105;-74
2022/08/27 00:17:54;;;;;;;9.93;8.90;;;;;;;17.34;100.00;101101.41;6065065;23;20015;-75
2022/08/27 00:20:24;;;;;;;15.65;12.23;;;;;;;17.63;100.00;101143.50;5998046;23;20022;-75
2022/08/27 00:22:52;;;;;;;15.75;11.07;;;;;;;17.23;100.00;101082.78;6081772;23;20010;-75
2022/08/27 00:25:19;;;;;;;16.35;11.63;;;;;;;17.35;100.00;101082.69;6053203;23;20034;-75
2022/08/27 00:27:46;;;;;;;12.30;9.95;;;;;;;17.55;100.00;101113.06;6082194;23;20021;-75
2022/08/27 00:30:15;;;;;;;18.75;11.30;;;;;;;17.63;100.00;101135.53;6026618;23;20026;-75
2022/08/27 00:32:42;;;;;;;14.15;9.77;;;;;;;17.65;100.00;101133.59;6019895;23;20019;-74
2022/08/27 00:35:08;;;;;;;12.35;10.18;;;;;;;17.51;100.00;101105.44;6081023;23;20089;-74
2022/08/27 00:37:35;;;;;;;10.13;9.05;;;;;;;17.34;100.00;101090.81;6026810;23;20015;-74
2022/08/27 00:40:08;;;;;;;9.45;8.52;;;;;;;17.59;100.00;101137.56;6086434;23;20022;-75
2022/08/27 00:42:34;;;;;;;8.52;7.78;;;;;;;17.29;100.00;101084.97;6030004;23;20013;-75
2022/08/27 00:45:04;;;;;;;8.55;7.75;;;;;;;17.52;100.00;101131.88;6084383;23;20093;-75
2022/08/27 00:47:39;;;;;;;8.10;7.50;;;;;;;17.51;100.00;101132.81;6039045;23;20049;-74
2022/08/27 00:50:13;;;;;;;7.93;7.28;;;;;;;16.80;100.00;101009.88;6033711;23;20437;-74
2022/08/27 00:53:01;;;;;;;8.52;7.72;;;;;;;17.45;100.00;101132.44;6046959;23;20103;-74
2022/08/27 00:55:36;;;;;;;7.95;7.32;;;;;;;17.12;100.00;101081.78;6084076;23;20731;-75
2022/08/27 00:58:15;;;;;;;7.13;6.63;;;;;;;17.43;100.00;101132.56;6020296;23;20042;-74
2022/08/27 01:00:43;;;;;;;7.35;6.80;;;;;;;17.06;100.00;101076.91;6089802;23;20558;-75
2022/08/27 01:03:11;;;;;;;8.20;7.50;;;;;;;16.54;100.00;100985.28;6055989;23;20484;-74
2022/08/27 01:05:38;;;;;;;6.50;6.10;;;;;;;17.39;100.00;101128.44;6082283;23;20196;-74
2022/08/27 01:08:12;;;;;;;9.75;6.68;;;;;;;17.12;100.00;101095.03;6057603;23;20026;-74
2022/08/27 01:10:40;;;;;;;7.30;6.80;;;;;;;17.38;100.00;101123.22;6062642;23;20118;-75
2022/08/27 01:13:09;;;;;;;6.65;6.15;;;;;;;16.65;100.00;101006.53;6051283;23;20026;-75
2022/08/27 01:15:39;;;;;;;10.27;6.28;;;;;;;17.41;100.00;101121.19;6088112;23;20025;-75
2022/08/27 01:18:10;;;;;;;6.07;5.68;;;;;;;17.44;100.00;101133.38;6053040;23;20097;-74
2022/08/27 01:21:02;;;;;;;6.93;6.35;;;;;;;17.33;100.00;101116.47;6083367;23;20038;-75
2022/08/27 01:23:51;;;;;;;6.18;5.75;;;;;;;16.88;100.00;101038.50;6048049;23;20448;-75
2022/08/27 01:26:17;;;;;;;10.80;7.20;;;;;;;17.18;100.00;101092.88;6069944;23;20044;-74
2022/08/27 01:28:44;;;;;;;6.15;5.75;;;;;;;17.02;100.00;101075.47;6043908;23;20483;-75
2022/08/27 01:31:11;;;;;;;6.78;6.40;;;;;;;17.16;100.00;101095.66;6086305;23;20144;-75
2022/08/27 01:33:38;;;;;;;5.80;5.50;;;;;;;16.88;100.00;101059.72;6051845;23;20034;-75
2022/08/27 01:36:05;;;;;;;6.38;5.97;;;;;;;17.22;100.00;101113.78;6026851;23;20022;-75
2022/08/27 01:38:33;;;;;;;6.43;5.95;;;;;;;17.05;100.00;101092.94;6080136;23;20060;-73
2022/08/27 01:41:00;;;;;;;6.88;6.22;;;;;;;17.18;100.00;101106.13;6031106;23;20030;-73
2022/08/27 01:43:28;;;;;;;6.40;5.97;;;;;;;16.91;100.00;101064.78;6079648;23;20073;-73
2022/08/27 01:45:54;;;;;;;6.80;6.40;;;;;;;17.17;100.00;101109.75;6053798;23;20030;-74
2022/08/27 01:48:21;;;;;;;7.78;7.28;;;;;;;16.39;100.00;100989.88;6083184;23;20051;-75
2022/08/27 01:50:49;;;;;;;6.63;6.18;;;;;;;16.95;100.00;101076.84;6053715;23;20047;-75
2022/08/27 01:53:22;;;;;;;8.52;7.80;;;;;;;17.18;100.00;101101.69;6076538;23;20014;-75
2022/08/27 01:55:50;;;;;;;6.78;6.30;;;;;;;17.17;100.00;101099.16;6057428;23;20018;-74
2022/08/27 01:58:19;;;;;;;8.10;7.60;;;;;;;17.13;100.00;101106.47;6083700;23;20014;-75
2022/08/27 02:00:49;;;;;;;6.65;6.22;;;;;;;16.88;100.00;101060.56;6031907;23;20100;-74
2022/08/27 02:03:21;;;;;;;8.30;7.53;;;;;;;17.13;100.00;101094.06;6073544;23;20053;-74
2022/08/27 02:05:48;;;;;;;7.85;6.95;;;;;;;16.89;100.00;101050.78;6057031;23;20022;-74
2022/08/27 02:08:16;;;;;;;8.70;8.00;;;;;;;17.15;100.00;101097.44;6074885;23;20030;-75
2022/08/27 02:10:44;;;;;;;9.18;6.22;;;;;;;17.15;100.00;101093.94;6032247;23;20444;-75
2022/08/27 02:13:12;;;;;;;8.25;7.38;;;;;;;17.14;100.00;101103.72;6084515;23;20026;-76
2022/08/27 02:15:40;;;;;;;7.07;6.57;;;;;;;17.15;100.00;101099.25;6027230;23;20600;-75
2022/08/27 02:18:08;;;;;;;7.88;7.15;;;;;;;17.07;100.00;101085.72;6080146;23;20022;-75
2022/08/27 02:20:35;;;;;;;6.40;5.97;;;;;;;17.13;100.00;101101.19;6032487;23;20011;-74
2022/08/27 02:23:03;;;;;;;6.45;5.95;;;;;;;17.08;100.00;101100.69;6081906;23;20026;-75
2022/08/27 02:25:30;;;;;;;6.60;6.15;;;;;;;16.83;100.00;101062.69;6044369;23;20690;-74
2022/08/27 02:27:58;;;;;;;8.23;6.25;;;;;;;17.08;100.00;101090.06;6022451;23;20043;-74
2022/08/27 02:30:26;;;;;;;6.90;6.40;;;;;;;17.08;100.00;101092.72;6073949;23;20634;-75
2022/08/27 02:32:53;;;;;;;6.25;5.85;;;;;;;16.82;100.00;101060.13;6053491;23;20019;-75
2022/08/27 02:35:23;;;;;;;6.88;6.47;;;;;;;17.06;100.00;101094.63;6073725;23;20028;-75
2022/08/27 02:37:50;;;;;;;6.57;6.15;;;;;;;16.29;100.00;100965.84;6022592;23;20019;-75
2022/08/27 02:40:20;;;;;;;7.22;6.82;;;;;;;16.96;100.00;101070.59;6076475;23;20029;-75
2022/08/27 02:42:46;;;;;;;6.60;6.10;;;;;;;17.03;100.00;101090.41;6026545;23;20039;-74
2022/08/27 02:45:15;;;;;;;7.72;7.22;;;;;;;17.01;100.00;101091.47;6090716;23;20034;-75
2022/08/27 02:47:42;;;;;;;6.43;5.93;;;;;;;16.70;100.00;101041.50;6028376;23;20082;-75
2022/08/27 02:50:09;;;;;;;8.02;7.32;;;;;;;15.81;100.00;100896.91;6089938;23;20040;-74
2022/08/27 02:52:36;;;;;;;6.20;5.80;;;;;;;16.81;100.00;101069.91;6051650;23;20077;-74
2022/08/27 02:55:04;;;;;;;7.22;6.68;;;;;;;16.77;100.00;101067.56;6077183;23;20030;-75
2022/08/27 02:57:31;;;;;;;8.07;7.45;;;;;;;16.47;100.00;101016.66;6038365;23;20020;-74
2022/08/27 03:00:05;;;;;;;14.30;8.50;;;;;;;16.92;100.00;101083.22;6053550;23;20562;-75
2022/08/27 03:02:31;;;;;;;12.65;7.50;;;;;;;16.94;100.00;101085.78;6022713;23;20019;-74
2022/08/27 03:04:58;;;;;;;7.93;7.22;;;;;;;16.79;100.00;101052.38;6056459;23;20085;-75
2022/08/27 03:07:24;;;;;;;8.55;7.75;;;;;;;16.99;100.00;101080.13;6021830;23;20030;-74
2022/08/27 03:09:51;;;;;;;8.32;7.53;;;;;;;16.74;100.00;101040.31;6054798;23;20028;-73
2022/08/27 03:12:18;;;;;;;8.43;7.93;;;;;;;16.37;100.00;100964.47;6021729;23;20023;-74
2022/08/27 03:14:48;;;;;;;8.88;7.20;;;;;;;15.59;100.00;100827.94;6014502;23;20225;-74
2022/08/27 03:20:00;;;;;;;8.85;7.28;;;;;;;16.68;100.00;101024.88;6045589;23;20021;-74
2022/08/27 03:22:27;;;;;;;16.90;8.40;;;;;;;16.57;100.00;101005.41;6025985;23;20026;-73
2022/08/27 03:24:54;;;;;;;8.80;7.97;;;;;;;16.51;100.00;100988.97;6033720;23;20015;-73
2022/08/27 03:27:21;;;;;;;10.35;9.35;;;;;;;16.91;100.00;101064.78;6021026;23;20022;-73
2022/08/27 03:29:48;;;;;;;9.45;8.15;;;;;;;16.38;100.00;100982.91;6055714;23;20025;-73
2022/08/27 03:32:14;;;;;;;10.65;9.38;;;;;;;16.20;100.00;100963.88;5999398;23;20564;-74
2022/08/27 03:34:41;;;;;;;8.90;8.10;;;;;;;16.44;100.00;100997.50;6054144;23;20626;-74
2022/08/27 03:37:07;;;;;;;11.80;8.82;;;;;;;16.86;100.00;101061.63;6008836;23;20056;-73
2022/08/27 03:39:34;;;;;;;10.55;8.73;;;;;;;16.84;100.00;101074.13;5997205;23;20030;-74
2022/08/27 03:42:00;;;;;;;9.60;8.65;;;;;;;16.47;100.00;101014.00;6052182;23;20041;-73
2022/08/27 03:44:26;;;;;;;10.98;8.85;;;;;;;16.19;100.00;100966.63;5992655;23;20095;-74
2022/08/27 03:46:53;;;;;;;20.17;10.05;;;;;;;16.61;100.00;101026.25;6040559;23;20048;-73
2022/08/27 03:49:21;;;;;;;14.35;10.30;;;;;;;16.46;100.00;101003.53;5970339;23;20077;-73
2022/08/27 03:51:51;;;;;;;13.38;9.02;;;;;;;16.42;100.00;100994.13;6047271;23;20028;-73
2022/08/27 03:54:18;;;;;;;16.58;9.98;;;;;;;16.41;100.00;100995.91;5997274;23;20019;-73
2022/08/27 03:56:44;;;;;;;14.05;10.00;;;;;;;16.30;100.00;100991.38;6054463;23;20030;-73
2022/08/27 03:59:10;;;;;;;11.90;10.57;;;;;;;16.49;100.00;101038.56;6020367;23;20047;-74
2022/08/27 04:01:37;;;;;;;13.20;8.95;;;;;;;16.82;100.00;101071.59;5984479;23;20039;-74
2022/08/27 04:04:04;;;;;;;9.93;8.93;;;;;;;16.35;100.00;100991.88;6053770;23;20026;-74
2022/08/27 04:06:31;;;;;;;9.85;8.05;;;;;;;16.20;100.00;100974.47;6004677;23;21781;-74
2022/08/27 04:08:59;;;;;;;8.07;7.30;;;;;;;16.51;100.00;101041.97;6055498;23;20028;-74
2022/08/27 04:11:28;;;;;;;9.63;8.75;;;;;;;16.36;100.00;101000.69;6025193;23;20032;-74
2022/08/27 04:13:55;;;;;;;8.40;7.30;;;;;;;16.33;100.00;101001.75;6052532;23;20019;-74
2022/08/27 04:16:22;;;;;;;9.50;8.52;;;;;;;16.39;100.00;101010.22;6021936;23;20023;-73
2022/08/27 04:18:48;;;;;;;14.35;7.32;;;;;;;15.60;100.00;100891.31;6054426;23;20500;-74
2022/08/27 04:21:15;;;;;;;9.15;8.35;;;;;;;16.60;100.00;101043.13;6026941;23;20027;-73
2022/08/27 04:23:42;;;;;;;7.93;7.32;;;;;;;16.86;100.00;101083.69;6054697;23;20400;-74
2022/08/27 04:26:09;;;;;;;8.40;7.78;;;;;;;16.90;100.00;101081.66;6028199;23;20037;-73
2022/08/27 04:28:37;;;;;;;8.20;7.40;;;;;;;16.90;100.00;101084.31;6054723;23;20088;-74
2022/08/27 04:31:08;;;;;;;8.77;7.97;;;;;;;16.71;100.00;101055.59;5988237;23;20047;-74
2022/08/27 04:33:43;;;;;;;9.77;7.20;;;;;;;16.91;100.00;101089.47;6046339;23;20109;-74
2022/08/27 04:36:17;;;;;;;9.60;8.70;;;;;;;16.65;100.00;101045.44;6021871;23;20109;-74
2022/08/27 04:38:43;;;;;;;10.23;7.50;;;;;;;16.35;100.00;101002.47;6054634;23;20023;-75
2022/08/27 04:41:20;;;;;;;10.80;7.90;;;;;;;16.66;100.00;101065.69;6007694;23;20026;-74
2022/08/27 04:43:55;;;;;;;10.98;8.50;;;;;;;16.82;100.00;101097.25;6045663;23;20037;-76
2022/08/27 04:46:29;;;;;;;13.75;9.82;;;;;;;16.89;100.00;101106.47;6021203;23;20022;-76
2022/08/27 04:48:58;;;;;;;7.70;7.00;;;;;;;16.38;100.00;101035.00;6034280;23;20444;-76
2022/08/27 04:51:27;;;;;;;8.98;8.07;;;;;;;16.81;100.00;101122.03;6012063;23;20488;-76
2022/08/27 04:53:55;;;;;;;8.30;7.40;;;;;;;16.37;100.00;101054.50;6055316;23;20026;-76
2022/08/27 04:56:25;;;;;;;8.07;7.47;;;;;;;16.67;100.00;101113.25;6020794;23;20026;-76
2022/08/27 04:58:52;;;;;;;7.50;6.90;;;;;;;16.41;100.00;101075.38;6052600;23;20452;-75
2022/08/27 05:01:21;;;;;;;9.55;8.63;;;;;;;16.65;100.00;101115.19;6021516;23;20019;-75
2022/08/27 05:03:48;;;;;;;8.63;7.72;;;;;;;16.63;100.00;101122.38;6028402;23;20074;-75
2022/08/27 05:06:16;;;;;;;9.00;8.32;;;;;;;16.49;100.00;101126.00;6025704;23;20065;-75
2022/08/27 05:08:43;;;;;;;8.15;7.55;;;;;;;16.04;100.00;101067.38;5998061;23;20019;-75
2022/08/27 05:11:13;;;;;;;8.75;7.75;;;;;;;16.22;100.00;101114.72;6058554;23;20025;-75
2022/08/27 05:13:41;;;;;;;12.23;8.15;;;;;;;16.34;100.00;101129.75;6025178;23;20022;-75
2022/08/27 05:16:11;;;;;;;8.23;7.55;;;;;;;16.34;100.00;101127.09;6033024;23;20325;-75
2022/08/27 05:18:38;;;;;;;8.50;7.63;;;;;;;16.32;100.00;101134.31;6001268;23;20034;-75
2022/08/27 05:21:23;;;;;;;8.63;7.80;;;;;;;16.25;100.00;101133.88;6007418;23;20111;-76
2022/08/27 05:23:50;;;;;;;8.40;7.65;;;;;;;16.25;100.00;101128.56;6027543;23;20030;-75
2022/08/27 05:26:17;;;;;;;10.10;9.15;;;;;;;16.00;100.00;101104.75;6013862;23;20027;-75
2022/08/27 05:28:43;;;;;;;8.88;7.63;;;;;;;15.33;100.00;101000.72;6029007;23;20337;-75
2022/08/27 05:31:14;;;;;;;9.32;8.35;;;;;;;15.65;100.00;101070.91;6023302;23;20180;-76
2022/08/27 05:33:42;;;;;;;12.40;7.35;;;;;;;16.17;100.00;101164.50;6045011;23;20506;-75
2022/08/27 05:36:19;;;;;;;8.57;7.88;;;;;;;15.60;100.00;101043.94;5997135;23;20035;-75
2022/08/27 05:38:48;;;;;;;8.05;7.05;;;;;;;15.72;100.00;101086.28;6023131;23;20011;-75
2022/08/27 05:41:18;;;;;;;9.13;8.35;;;;;;;16.11;100.00;101137.47;5998058;23;20031;-75
2022/08/27 05:43:45;;;;;;;8.05;7.28;;;;;;;16.09;100.00;101130.59;6057388;23;20026;-75
2022/08/27 05:46:18;;;;;;;8.13;7.55;;;;;;;16.09;100.00;101135.88;6022623;23;20029;-75
2022/08/27 05:48:47;;;;;;;8.23;7.53;;;;;;;16.17;100.00;101140.66;6048781;23;20046;-75
2022/08/27 05:51:15;;;;;;;8.75;8.02;;;;;;;16.24;100.00;101134.84;6028004;23;20019;-76
2022/08/27 05:54:00;;;;;;;8.02;6.90;;;;;;;16.13;100.00;101111.72;5994394;23;20038;-75
2022/08/27 05:56:33;;;;;;;7.10;6.57;;;;;;;16.04;100.00;101087.72;6021833;23;20507;-77
2022/08/27 06:01:48;;;;;;;6.55;6.15;;;;;;;16.28;100.00;101135.47;6050966;23;20034;-75
2022/08/27 06:04:16;;;;;;;9.93;9.02;;;;;;;16.16;100.00;101110.69;6054469;23;20535;-75
2022/08/27 06:06:44;;;;;;;6.95;6.35;;;;;;;16.01;100.00;101086.09;6057783;23;20630;-75
2022/08/27 06:09:14;;;;;;;8.00;7.40;;;;;;;16.21;100.00;101144.78;6080169;23;20096;-75
2022/08/27 06:11:40;;;;;;;6.55;6.05;;;;;;;16.25;100.00;101133.03;6040251;23;20016;-75
2022/08/27 06:14:11;;;;;;;7.40;6.70;;;;;;;16.11;100.00;101118.09;6015372;23;20458;-75
2022/08/27 06:16:39;;;;;;;7.35;6.53;;;;;;;16.20;100.00;101138.66;6047715;23;20046;-75
2022/08/27 06:19:07;;;;;;;7.55;6.68;;;;;;;16.21;100.00;101144.78;6058251;23;20022;-74
2022/08/27 06:21:34;;;;;;;9.68;6.65;;;;;;;15.90;100.00;101112.47;6028139;23;20074;-75
2022/08/27 06:24:00;;;;;;;7.05;6.40;;;;;;;15.80;100.00;101091.06;6077929;23;20022;-75
2022/08/27 06:26:27;;;;;;;7.05;6.45;;;;;;;15.90;100.00;101107.19;6020419;23;20196;-75
2022/08/27 06:28:54;;;;;;;7.13;6.50;;;;;;;15.83;100.00;101085.56;6054067;23;20018;-74
2022/08/27 06:31:26;;;;;;;8.00;7.50;;;;;;;16.14;100.00;101139.91;6046326;23;20483;-75
2022/08/27 06:33:57;;;;;;;6.80;6.32;;;;;;;16.15;100.00;101140.75;6080115;23;20023;-75
2022/08/27 06:36:28;;;;;;;7.40;6.80;;;;;;;15.58;100.00;101053.75;6037868;23;20019;-75
2022/08/27 06:38:56;;;;;;;6.60;6.13;;;;;;;16.04;100.00;101128.25;6076007;23;20025;-74
2022/08/27 06:41:25;;;;;;;7.30;6.70;;;;;;;16.23;100.00;101146.38;6006876;23;20035;-75
2022/08/27 06:43:53;;;;;;;6.97;6.35;;;;;;;16.17;100.00;101140.66;6073526;23;20085;-75
2022/08/27 06:46:22;;;;;;;10.40;7.45;;;;;;;15.77;100.00;101083.31;6031764;23;20450;-75
2022/08/27 06:48:53;;;;;;;6.50;6.10;;;;;;;16.09;100.00;101130.59;6061430;23;20041;-74
2022/08/27 06:51:24;;;;;;;7.97;7.38;;;;;;;16.14;100.00;101149.66;6032823;23;20544;-75
2022/08/27 06:53:53;;;;;;;6.75;6.25;;;;;;;15.81;100.00;101090.09;6058079;23;20014;-75
2022/08/27 06:56:21;;;;;;;8.60;7.90;;;;;;;16.21;100.00;101145.63;6032405;23;20029;-75
2022/08/27 06:58:52;;;;;;;6.50;6.10;;;;;;;16.17;100.00;101146.78;6062578;23;20369;-75
2022/08/27 07:01:23;;;;;;;7.70;6.95;;;;;;;15.86;100.00;101076.59;6056325;23;20021;-75
2022/08/27 07:03:49;;;;;;;6.85;6.35;;;;;;;16.15;100.00;101146.03;6017567;23;20421;-75
2022/08/27 07:06:17;;;;;;;8.60;7.95;;;;;;;16.20;100.00;101146.59;6062955;23;20065;-76
2022/08/27 07:08:44;;;;;;;9.48;7.57;;;;;;;16.23;100.00;101125.19;6031297;23;20031;-76
2022/08/27 07:11:19;;;;;;;8.75;8.02;;;;;;;16.46;100.00;101134.19;6057255;23;20089;-75
2022/08/27 07:13:47;;;;;;;6.82;6.30;;;;;;;16.48;100.00;101128.78;6031807;23;20341;-76
2022/08/27 07:16:16;;;;;;;12.13;8.05;;;;;;;16.54;100.00;101123.06;6060677;23;20032;-75
2022/08/27 07:18:43;;;;;;;6.65;6.05;;;;;;;16.08;100.00;101062.72;6049768;23;20481;-75
2022/08/27 07:21:11;;;;;;;8.75;7.97;;;;;;;16.09;100.00;101078.47;6049617;23;20045;-75
2022/08/27 07:23:38;;;;;;;7.10;6.60;;;;;;;16.53;100.00;101139.91;6050838;23;20388;-75
2022/08/27 07:26:09;;;;;;;7.40;6.88;;;;;;;16.68;100.00;101135.34;6083797;23;20034;-75
2022/08/27 07:28:38;;;;;;;7.03;6.47;;;;;;;16.69;100.00;101134.38;6029869;23;20096;-75
2022/08/27 07:31:07;;;;;;;7.10;6.38;;;;;;;16.46;100.00;101090.97;6014185;23;20043;-75
2022/08/27 07:33:35;;;;;;;6.38;5.95;;;;;;;16.87;100.00;101132.22;6087691;23;20514;-75
2022/08/27 07:36:04;;;;;;;6.78;6.30;;;;;;;16.56;100.00;101078.75;6002382;23;20065;-75
2022/08/27 07:38:31;;;;;;;7.70;7.00;;;;;;;16.51;100.00;101084.34;6082706;23;20022;-77
2022/08/27 07:40:58;;;;;;;7.53;6.85;;;;;;;16.50;100.00;101063.28;6030913;23;20105;-75
2022/08/27 07:46:10;;;;;;;7.93;7.22;;;;;;;16.68;100.00;101055.84;6054335;23;20028;-74
2022/08/27 07:48:36;;;;;;;10.70;6.55;;;;;;;17.14;100.00;101138.19;6084352;23;20026;-76
2022/08/27 07:51:04;;;;;;;7.85;6.90;;;;;;;17.18;100.00;101137.97;6019207;23;20753;-74
2022/08/27 07:53:33;;;;;;;7.82;7.10;;;;;;;16.94;100.00;101101.69;6088824;23;20629;-76
2022/08/27 07:56:04;;;;;;;8.95;6.75;;;;;;;17.23;100.00;101139.31;6055341;23;20086;-74
2022/08/27 07:58:31;;;;;;;7.38;6.88;;;;;;;17.29;100.00;101143.34;6018162;23;20656;-75
2022/08/27 08:00:58;;;;;;;7.30;6.55;;;;;;;17.06;100.00;101108.75;6081440;23;20494;-75
2022/08/27 08:03:24;;;;;;;8.02;7.38;;;;;;;17.26;100.00;101103.75;6053288;23;20045;-75
2022/08/27 08:05:52;;;;;;;8.70;6.72;;;;;;;16.85;100.00;101067.88;6021745;23;20043;-75
2022/08/27 08:08:20;;;;;;;8.35;7.65;;;;;;;17.04;100.00;101092.09;6084472;23;20697;-75
2022/08/27 08:10:47;;;;;;;8.20;7.40;;;;;;;17.32;100.00;101148.44;6029992;23;20030;-75
2022/08/27 08:13:15;;;;;;;10.35;7.82;;;;;;;16.91;100.00;101057.66;6056338;23;20510;-74
2022/08/27 08:15:45;;;;;;;6.70;6.20;;;;;;;17.55;100.00;101144.91;6053363;23;20026;-77
2022/08/27 08:18:12;;;;;;;8.10;7.45;;;;;;;17.70;100.00;101137.63;6083258;23;20020;-74
2022/08/27 08:20:39;;;;;;;6.93;6.53;;;;;;;17.55;100.00;101105.09;6057133;23;20011;-75
2022/08/27 08:23:23;;;;;;;8.75;8.15;;;;;;;17.32;100.00;101066.19;6064303;23;20033;-75
2022/08/27 08:25:49;;;;;;;9.43;6.75;;;;;;;17.39;100.00;101066.56;6050912;23;20018;-76
2022/08/27 08:28:16;;;;;;;8.50;7.75;;;;;;;17.76;100.00;101125.69;6084189;23;20537;-77
2022/08/27 08:30:46;;;;;;;7.57;6.95;;;;;;;17.77;100.00;101134.50;6058909;23;20018;-76
2022/08/27 08:33:13;;;;;;;7.45;6.85;;;;;;;17.50;100.00;101083.38;6082392;23;20124;-76
2022/08/27 08:35:40;;;;;;;6.82;6.32;;;;;;;17.75;100.00;101102.75;6058000;23;20033;-77
2022/08/27 08:38:07;;;;;;;6.65;6.15;;;;;;;18.21;100.00;101156.84;6084426;23;20026;-77
2022/08/27 08:40:54;;;;;;;7.05;6.45;;;;;;;18.15;100.00;101144.88;6052864;23;20127;-76
2022/08/27 08:43:38;;;;;;;7.00;6.35;;;;;;;17.94;100.00;101089.78;6017088;23;20468;-77
2022/08/27 08:47:00;;;;;;;7.18;6.47;;;;;;;17.94;100.00;101081.81;6059563;23;20038;-74
2022/08/27 08:49:43;;;;;;;6.53;6.13;;;;;;;17.86;100.00;101078.91;5935208;24;20627;-75
2022/08/27 08:52:25;;;;;;;7.05;6.65;;;;;;;18.35;100.00;101156.63;5963984;23;20612;-74
2022/08/27 08:55:27;;;;;;;6.68;6.18;;;;;;;18.25;100.00;101148.50;6002865;23;20018;-75
2022/08/27 08:58:11;;;;;;;6.35;5.95;;;;;;;17.92;100.00;101102.34;6082316;23;20654;-75
2022/08/27 09:00:40;;;;;;;6.65;6.15;;;;;;;17.90;100.00;101112.25;6048910;23;20030;-75
2022/08/27 09:03:11;;;;;;;7.15;6.22;;;;;;;17.94;100.00;101104.88;6085435;23;20510;-75
2022/08/27 09:05:42;;;;;;;6.68;6.22;;;;;;;18.30;100.00;101167.63;6016656;23;20090;-75
2022/08/27 09:08:36;;;;;;;7.40;6.90;;;;;;;17.99;100.00;101134.56;6081658;23;20025;-74
2022/08/27 09:11:21;;;;;;;7.15;6.47;;;;;;;18.37;100.00;101175.09;6030352;23;20038;-75
2022/08/27 09:13:56;;;;;;;7.00;6.60;;;;;;;18.35;100.00;101177.88;6087687;23;20462;-75
2022/08/27 09:16:23;;;;;;;7.68;7.10;;;;;;;17.93;100.00;101098.72;6049432;23;20022;-75
2022/08/27 09:18:50;;;;;;;6.85;6.05;;;;;;;17.97;100.00;101085.22;6095907;23;20389;-75
2022/08/27 09:21:50;;;;;;;7.75;7.25;;;;;;;18.58;100.00;101178.72;6024365;23;20261;-75
2022/08/27 09:24:51;;;;;;;8.57;7.85;;;;;;;18.70;100.00;101176.91;6071511;23;20022;-75
2022/08/27 09:27:19;;;;;;;6.38;5.97;;;;;;;18.44;100.00;101134.66;6016292;23;20404;-75
2022/08/27 09:29:52;;;;;;;6.68;6.07;;;;;;;17.85;100.00;101044.53;6080247;23;20014;-75
2022/08/27 09:32:30;;;;;;;12.13;7.68;;;;;;;18.77;100.00;101183.47;6043107;23;20049;-75
2022/08/27 09:34:58;;;;;;;6.10;5.80;;;;;;;18.69;100.00;101180.56;5989351;23;20027;-75
2022/08/27 09:37:31;;;;;;;7.32;6.72;;;;;;;18.54;100.00;101187.91;6076985;23;20026;-75
2022/08/27 09:40:13;;;;;;;6.30;6.00;;;;;;;18.53;100.00;101178.25;6034895;23;20077;-75
2022/08/27 09:42:56;;;;;;;7.38;6.30;;;;;;;18.68;100.00;101177.06;6074107;23;20076;-76
2022/08/27 09:45:26;;;;;;;6.97;6.57;;;;;;;18.37;100.00;101135.25;6021828;23;20031;-76
2022/08/27 09:48:02;;;;;;;5.90;5.60;;;;;;;18.64;100.00;101180.06;6078932;23;20042;-76
2022/08/27 09:50:57;;;;;;;6.15;5.57;;;;;;;18.74;100.00;101187.22;6023513;23;20019;-75
2022/08/27 09:53:56;;;;;;;7.88;7.25;;;;;;;18.69;100.00;101189.38;6068147;23;20014;-76
2022/08/27 09:56:25;;;;;;;7.72;7.15;;;;;;;18.82;100.00;101189.31;5959260;23;20038;-75
2022/08/27 09:58:58;;;;;;;6.43;6.03;;;;;;;18.42;100.00;101122.44;6019517;23;20018;-76
2022/08/27 10:01:28;;;;;;;7.30;6.43;;;;;;;18.88;100.00;101190.59;6037104;23;20027;-76
2022/08/27 10:04:13;;;;;;;6.68;6.20;;;;;;;18.51;100.00;101133.19;6014327;23;20578;-75
2022/08/27 10:06:46;;;;;;;6.25;5.85;;;;;;;18.31;100.00;101121.47;6065433;23;20522;-75
2022/08/27 10:09:46;;;;;;;7.25;6.85;;;;;;;18.86;100.00;101189.88;6023171;23;20049;-74
2022/08/27 10:12:25;;;;;;;7.30;6.70;;;;;;;18.57;100.00;101136.34;6074212;23;20467;-75
2022/08/27 10:14:57;;;;;;;6.10;5.72;;;;;;;18.95;100.00;101186.50;6030160;23;20015;-75
2022/08/27 10:17:24;;;;;;;15.20;6.68;;;;;;;19.09;100.00;101186.22;6063831;23;20056;-75
2022/08/27 10:20:17;;;;;;;6.53;6.13;;;;;;;19.13;100.00;101205.47;6019281;23;20014;-75
2022/08/27 10:23:04;;;;;;;5.90;5.60;;;;;;;19.24;99.87;101191.28;6061810;23;20084;-76
2022/08/27 10:25:43;;;;;;;8.13;5.97;;;;;;;19.37;99.02;101194.66;6040959;23;20744;-76
2022/08/27 10:28:37;;;;;;;7.22;6.78;;;;;;;19.05;97.58;101122.78;6081652;23;20021;-74
2022/08/27 10:31:07;;;;;;;6.88;6.28;;;;;;;19.55;96.77;101186.13;6036280;23;20022;-76
2022/08/27 10:33:38;;;;;;;6.68;6.28;;;;;;;19.26;95.71;101134.31;5995039;23;20090;-76
2022/08/27 10:36:11;;;;;;;6.40;5.90;;;;;;;19.57;94.46;101184.19;6062700;23;20014;-75
2022/08/27 10:38:42;;;;;;;6.28;5.88;;;;;;;19.18;93.57;101112.78;6048733;23;20025;-76
2022/08/27 10:41:28;;;;;;;7.10;6.60;;;;;;;19.75;92.58;101182.69;6022124;23;20090;-75
2022/08/27 10:43:54;;;;;;;6.72;6.15;;;;;;;19.90;91.36;101191.19;6052176;23;20593;-77
2022/08/27 10:46:47;;;;;;;7.85;7.07;;;;;;;19.89;88.28;101190.38;6055897;23;20025;-75
2022/08/27 10:49:25;;;;;;;7.43;6.95;;;;;;;19.44;89.97;101107.97;6015298;23;20030;-76
2022/08/27 10:51:57;;;;;;;5.70;5.40;;;;;;;20.15;90.08;101182.00;6058513;23;20210;-76
2022/08/27 10:54:53;;;;;;;7.65;7.10;;;;;;;19.97;85.95;101170.25;6043805;23;20028;-76
2022/08/27 10:57:36;;;;;;;7.43;7.03;;;;;;;19.44;84.90;101049.41;6061640;23;20026;-75
2022/08/27 11:00:23;;;;;;;6.65;6.30;;;;;;;20.32;86.54;101165.38;6049363;23;20586;-76
2022/08/27 11:03:08;;;;;;;5.93;5.57;;;;;;;20.47;84.28;101187.22;6073057;23;20014;-75
2022/08/27 11:05:45;;;;;;;6.43;6.03;;;;;;;19.92;83.43;101139.50;6061237;23;20045;-75
2022/08/27 11:08:14;;;;;;;7.45;6.85;;;;;;;20.41;84.37;101181.59;6070836;23;20028;-76
2022/08/27 11:10:53;;;;;;;6.53;6.03;;;;;;;20.14;83.89;101111.00;6039894;23;20015;-75
2022/08/27 11:13:26;;;;;;;7.20;6.80;;;;;;;20.56;82.80;101182.06;6062372;23;20357;-76
2022/08/27 11:15:55;;;;;;;6.50;6.10;;;;;;;20.39;82.96;101115.06;6032977;23;20015;-76
2022/08/27 11:18:50;;;;;;;7.75;7.25;;;;;;;20.87;82.05;101180.28;6005293;23;20038;-75
2022/08/27 11:21:24;;;;;;;7.43;7.00;;;;;;;21.06;79.78;101177.66;6061759;23;20021;-76
2022/08/27 11:23:59;;;;;;;6.45;5.97;;;;;;;20.44;78.75;101037.34;6039790;23;20093;-76
2022/08/27 11:26:30;;;;;;;7.20;6.70;;;;;;;21.21;79.03;101155.91;6071196;23;20062;-75
2022/08/27 11:29:00;;;;;;;6.18;5.78;;;;;;;21.15;78.34;101138.63;6053681;23;20023;-76
2022/08/27 11:31:35;;;;;;;7.07;6.68;;;;;;;21.40;77.06;101176.47;6077562;23;20038;-76
2022/08/27 11:34:19;;;;;;;6.43;5.88;;;;;;;21.02;75.64;101136.22;6024905;23;20072;-76
2022/08/27 11:37:03;;;;;;;6.30;5.80;;;;;;;21.48;76.12;101163.28;6025649;23;20043;-75
2022/08/27 11:39:57;;;;;;;6.47;5.97;;;;;;;21.20;75.10;101171.06;6060832;23;20363;-76
2022/08/27 11:42:38;;;;;;;7.25;6.85;;;;;;;20.78;75.60;101027.19;6040616;23;20037;-76
2022/08/27 11:45:14;;;;;;;6.32;5.95;;;;;;;21.38;74.67;101087.66;6001597;23;20027;-75